Time;durP1;ratioP1;P1;durP2;ratioP2;P2;SDS_P1;SDS_P2;PMS_P1;PMS_P2;Temp;Humidity;BMP_temperature;BMP_pressure;BME280_temperature;BME280_humidity;BME280_pressure;Samples;Min_cycle;Max_cycle;Signal;HPM_P1;HPM_P2
2022/08/28 00:00:12;;;;;;;7.95;2.55;;;;;;;16.21;62.25;101797.97;4999723;28;21703;-77
2022/08/28 00:02:38;;;;;;;6.90;2.45;;;;;;;16.20;62.15;101802.38;5002324;28;20183;-77
2022/08/28 00:05:04;;;;;;;6.47;2.60;;;;;;;16.19;62.52;101807.66;5006814;28;20745;-77
2022/08/28 00:07:30;;;;;;;6.70;2.30;;;;;;;16.13;62.64;101803.50;4997821;28;20133;-77
2022/08/28 00:09:55;;;;;;;5.57;2.38;;;;;;;16.12;62.84;101814.06;4989322;28;20088;-77
2022/08/28 00:12:20;;;;;;;5.88;2.65;;;;;;;16.10;63.17;101810.63;5004259;28;21083;-77
2022/08/28 00:14:45;;;;;;;10.43;4.55;;;;;;;16.04;62.92;101812.53;5001499;28;20022;-77
2022/08/28 00:17:11;;;;;;;13.90;7.72;;;;;;;16.01;63.27;101809.16;4998829;28;20030;-77
2022/08/28 00:19:36;;;;;;;28.10;13.93;;;;;;;15.99;63.23;101813.59;4998910;28;20022;-77
2022/08/28 00:22:03;;;;;;;28.20;17.38;;;;;;;15.95;63.36;101810.22;5003730;28;20024;-77
2022/08/28 00:24:28;;;;;;;34.90;21.10;;;;;;;15.92;63.52;101813.78;4988730;28;20033;-77
2022/08/28 00:29:37;;;;;;;41.00;26.10;;;;;;;15.86;63.80;101810.50;5004368;28;20092;-77
2022/08/28 00:32:03;;;;;;;44.13;27.48;;;;;;;15.80;64.24;101806.28;5005517;28;20042;-77
2022/08/28 00:34:28;;;;;;;41.55;26.55;;;;;;;15.77;64.22;101803.75;5011857;28;20033;-76
2022/08/28 00:36:53;;;;;;;43.65;27.25;;;;;;;15.74;64.09;101809.09;4993893;28;20033;-77
2022/08/28 00:39:19;;;;;;;43.42;26.13;;;;;;;15.70;64.44;101804.88;5000363;28;20053;-77
2022/08/28 00:41:44;;;;;;;40.40;26.13;;;;;;;15.66;64.62;101801.47;5003946;28;20025;-77
2022/08/28 00:44:23;;;;;;;44.10;25.60;;;;;;;15.63;64.50;101806.81;5002974;28;20080;-77
2022/08/28 00:46:50;;;;;;;39.05;22.63;;;;;;;15.59;64.98;101806.06;5009158;28;20064;-77
2022/08/28 00:49:21;;;;;;;35.20;19.08;;;;;;;15.57;65.06;101810.50;5002917;28;20112;-77
2022/08/28 00:54:41;;;;;;;25.83;11.95;;;;;;;15.52;65.04;101807.19;5003817;28;20287;-77
2022/08/28 00:57:09;;;;;;;23.35;9.85;;;;;;;15.50;65.31;101798.50;4996892;28;20796;-76
2022/08/28 00:59:36;;;;;;;16.85;7.80;;;;;;;15.46;65.46;101802.09;5010339;28;20036;-77
2022/08/28 01:02:02;;;;;;;15.07;6.15;;;;;;;15.43;65.58;101805.69;5000461;28;20030;-77
2022/08/28 01:04:31;;;;;;;12.45;4.95;;;;;;;15.39;65.61;101808.44;5004528;28;20030;-76
2022/08/28 01:06:58;;;;;;;11.57;4.93;;;;;;;15.36;65.88;101809.41;5006250;28;20414;-77
2022/08/28 01:09:28;;;;;;;10.73;4.03;;;;;;;15.30;65.78;101805.19;5001269;28;20699;-77
2022/08/28 01:11:58;;;;;;;8.40;3.90;;;;;;;15.27;65.95;101810.53;5004631;28;20030;-76
2022/08/28 01:14:25;;;;;;;8.38;3.13;;;;;;;15.27;66.00;101821.03;5002357;28;20437;-77
2022/08/28 01:16:54;;;;;;;8.98;3.10;;;;;;;15.27;66.18;101822.78;5001451;28;20041;-76
2022/08/28 01:19:36;;;;;;;5.90;2.80;;;;;;;15.27;65.74;101818.41;4997519;28;20049;-77
2022/08/28 01:22:25;;;;;;;8.43;3.17;;;;;;;15.24;66.34;101815.84;5005831;28;20034;-77
2022/08/28 01:24:54;;;;;;;8.55;2.88;;;;;;;15.22;66.42;101819.44;5011830;28;20029;-77
2022/08/28 01:27:20;;;;;;;6.07;2.83;;;;;;;15.20;66.33;101827.34;5010379;28;20555;-76
2022/08/28 01:29:46;;;;;;;8.10;3.10;;;;;;;15.17;66.73;101824.81;5009909;28;20029;-77
2022/08/28 01:32:12;;;;;;;6.65;3.20;;;;;;;15.17;66.77;101827.44;5010113;28;20418;-77
2022/08/28 01:34:38;;;;;;;8.68;3.13;;;;;;;15.15;66.78;101822.22;5006665;28;20439;-77
2022/08/28 01:37:03;;;;;;;8.65;3.40;;;;;;;15.14;66.86;101828.38;5005188;28;20041;-77
2022/08/28 01:39:29;;;;;;;7.55;3.22;;;;;;;15.13;66.97;101815.34;5006471;28;20117;-77
2022/08/28 01:41:55;;;;;;;7.65;3.40;;;;;;;15.13;66.99;101823.19;5006879;28;20194;-77
2022/08/28 01:44:24;;;;;;;7.15;3.30;;;;;;;15.12;67.10;101822.31;5006414;28;20044;-77
2022/08/28 01:46:52;;;;;;;7.72;3.00;;;;;;;15.13;67.10;101823.19;5006075;28;20028;-77
2022/08/28 01:49:18;;;;;;;8.13;3.20;;;;;;;15.12;67.15;101826.72;5007465;28;20108;-77
2022/08/28 01:51:44;;;;;;;7.05;2.90;;;;;;;15.11;67.17;101825.88;5004545;28;20030;-76
2022/08/28 01:54:10;;;;;;;6.78;2.92;;;;;;;15.12;67.55;101838.03;5005165;28;20041;-77
2022/08/28 01:56:36;;;;;;;7.68;2.95;;;;;;;15.12;67.25;101827.56;5001857;28;20017;-77
2022/08/28 01:59:05;;;;;;;8.80;3.13;;;;;;;15.13;67.25;101841.53;5003366;28;20161;-77
2022/08/28 02:01:30;;;;;;;8.68;3.13;;;;;;;15.12;67.22;101838.03;5003792;28;20100;-77
2022/08/28 02:03:55;;;;;;;6.75;3.15;;;;;;;15.08;67.20;101831.19;5002997;28;20038;-77
2022/08/28 02:06:21;;;;;;;7.90;3.05;;;;;;;15.08;67.42;101838.19;5000689;28;20040;-77
2022/08/28 02:08:48;;;;;;;9.52;2.88;;;;;;;15.07;67.33;101833.84;4999203;28;20058;-77
2022/08/28 02:11:15;;;;;;;7.57;2.90;;;;;;;15.05;67.76;101840.88;5001985;28;20032;-77
2022/08/28 02:13:41;;;;;;;6.65;2.80;;;;;;;15.05;67.70;101840.88;5002533;28;20037;-77
2022/08/28 02:16:08;;;;;;;6.93;2.70;;;;;;;15.01;67.82;101846.25;5000671;28;20112;-77
2022/08/28 02:18:34;;;;;;;9.00;3.22;;;;;;;15.00;67.75;101855.00;5000860;28;20040;-77
2022/08/28 02:21:00;;;;;;;8.90;3.10;;;;;;;14.99;67.75;101858.53;5006709;28;20025;-77
2022/08/28 02:23:25;;;;;;;7.82;2.97;;;;;;;14.97;67.53;101855.09;5000266;28;20061;-77
2022/08/28 02:25:50;;;;;;;7.97;2.67;;;;;;;14.95;67.49;101849.03;5001098;28;20049;-77
2022/08/28 02:28:16;;;;;;;9.70;3.25;;;;;;;14.94;67.94;101852.53;5001695;28;20137;-77
2022/08/28 02:30:41;;;;;;;6.35;2.45;;;;;;;14.92;67.64;101851.72;5002224;28;20018;-77
2022/08/28 02:33:07;;;;;;;6.38;2.67;;;;;;;14.88;67.92;101852.69;4999475;28;20029;-77
2022/08/28 02:35:32;;;;;;;7.53;2.60;;;;;;;14.88;67.97;101850.06;5003293;28;20136;-77
2022/08/28 02:37:57;;;;;;;7.70;3.10;;;;;;;14.85;67.99;101855.44;5001450;28;20029;-77
2022/08/28 02:40:24;;;;;;;7.63;3.00;;;;;;;14.83;68.07;101854.59;4999108;28;20022;-77
2022/08/28 02:42:50;;;;;;;7.95;2.78;;;;;;;14.80;68.18;101846.81;4999122;28;20034;-77
2022/08/28 02:45:17;;;;;;;9.00;2.90;;;;;;;14.76;68.31;101850.44;5001627;28;20151;-77
2022/08/28 02:47:44;;;;;;;7.03;2.90;;;;;;;14.71;68.32;101859.25;5002391;28;20033;-77
2022/08/28 02:50:12;;;;;;;8.30;2.63;;;;;;;14.67;68.51;101854.13;5000686;28;20035;-77
2022/08/28 02:52:38;;;;;;;7.70;2.95;;;;;;;14.63;68.64;101855.09;5004129;28;20041;-77
2022/08/28 02:55:05;;;;;;;5.22;2.60;;;;;;;14.60;68.46;101850.81;5002963;28;20026;-77
2022/08/28 02:57:31;;;;;;;6.80;2.90;;;;;;;14.57;68.64;101850.88;5000858;28;20049;-77
2022/08/28 02:59:57;;;;;;;8.52;2.75;;;;;;;14.54;68.70;101850.97;5000044;28;20026;-76
2022/08/28 03:02:23;;;;;;;7.05;2.60;;;;;;;14.49;68.74;101848.47;4985950;28;20029;-77
2022/08/28 03:04:48;;;;;;;6.10;2.92;;;;;;;14.49;68.60;101842.38;5000549;28;20026;-77
2022/08/28 03:07:15;;;;;;;6.55;3.38;;;;;;;14.47;68.74;101849.41;4999893;28;20059;-77
2022/08/28 03:09:42;;;;;;;9.63;3.03;;;;;;;14.42;68.79;101841.69;5000765;28;20474;-77
2022/08/28 03:12:09;;;;;;;5.70;2.88;;;;;;;14.40;68.80;101846.94;5001907;28;20038;-77
2022/08/28 03:14:35;;;;;;;7.03;2.58;;;;;;;14.37;69.05;101852.25;5003374;28;20034;-77
2022/08/28 03:17:00;;;;;;;7.88;3.35;;;;;;;14.33;69.12;101853.25;5002585;28;20392;-77
2022/08/28 03:19:25;;;;;;;8.88;2.90;;;;;;;14.32;69.05;101850.66;5000880;28;20022;-77
2022/08/28 03:21:51;;;;;;;5.78;2.65;;;;;;;14.27;69.30;101853.41;4999855;28;20481;-77
2022/08/28 03:24:17;;;;;;;6.95;3.03;;;;;;;14.26;69.43;101859.53;4998108;28;20152;-77
2022/08/28 03:26:43;;;;;;;9.90;3.25;;;;;;;14.23;69.30;101854.38;4999027;28;20022;-77
2022/08/28 03:29:08;;;;;;;5.45;2.72;;;;;;;14.21;69.28;101867.50;4996878;28;20417;-77
2022/08/28 03:31:35;;;;;;;8.27;3.00;;;;;;;14.17;69.47;101862.38;4997450;28;20041;-77
2022/08/28 03:34:01;;;;;;;6.80;2.88;;;;;;;14.14;69.77;101862.44;4986223;28;20145;-77
2022/08/28 03:36:28;;;;;;;6.40;3.20;;;;;;;14.12;69.62;101865.09;4999023;28;20124;-77
2022/08/28 03:38:58;;;;;;;9.02;3.10;;;;;;;14.09;69.75;101866.03;5002527;28;20029;-77
2022/08/28 03:41:27;;;;;;;10.15;2.85;;;;;;;14.05;70.02;101864.38;4998276;28;20030;-77
2022/08/28 03:43:56;;;;;;;10.48;2.95;;;;;;;14.03;70.21;101874.03;5001859;28;20026;-77
2022/08/28 03:46:23;;;;;;;12.07;3.20;;;;;;;14.04;70.00;101880.13;4999384;28;20045;-77
2022/08/28 03:48:49;;;;;;;9.55;3.58;;;;;;;14.00;70.11;101879.34;4998416;28;20054;-77
2022/08/28 03:51:27;;;;;;;10.40;2.95;;;;;;;13.97;69.47;101882.03;4996961;28;20104;-77
2022/08/28 03:53:53;;;;;;;7.82;3.20;;;;;;;13.93;70.51;101885.59;4998668;28;20037;-76
2022/08/28 03:56:22;;;;;;;10.32;3.63;;;;;;;13.92;70.69;101889.13;5003366;28;20021;-77
2022/08/28 03:58:56;;;;;;;10.38;3.15;;;;;;;13.88;70.73;101885.72;5003108;28;20390;-77
2022/08/28 04:01:21;;;;;;;9.35;3.33;;;;;;;13.85;70.78;101882.28;4999503;28;21759;-77
2022/08/28 04:03:47;;;;;;;7.75;3.20;;;;;;;13.84;70.84;101880.56;4998569;28;20030;-77
2022/08/28 04:06:13;;;;;;;7.32;3.30;;;;;;;13.81;70.99;101891.97;4998035;28;20044;-77
2022/08/28 04:08:39;;;;;;;8.65;2.88;;;;;;;13.79;71.14;101889.41;5001042;28;20057;-77
2022/08/28 04:11:05;;;;;;;7.05;3.08;;;;;;;13.78;70.86;101885.06;4997492;28;20041;-77
2022/08/28 04:13:30;;;;;;;7.70;2.72;;;;;;;13.77;70.88;101885.97;4997789;28;20375;-76
2022/08/28 04:16:03;;;;;;;6.47;2.92;;;;;;;13.74;70.51;101885.19;4999501;28;20536;-77
2022/08/28 04:18:29;;;;;;;5.45;2.55;;;;;;;13.71;71.12;101886.09;5000769;28;20030;-77
2022/08/28 04:21:02;;;;;;;7.07;3.00;;;;;;;13.68;71.13;101888.75;5000368;28;20033;-77
2022/08/28 04:23:28;;;;;;;8.05;2.78;;;;;;;13.65;71.29;101881.84;4999403;28;20026;-77
2022/08/28 04:25:53;;;;;;;6.43;2.80;;;;;;;13.63;71.58;101890.63;5001920;28;20025;-77
2022/08/28 04:28:19;;;;;;;6.95;2.72;;;;;;;13.59;71.87;101886.34;5002762;28;20038;-77
2022/08/28 04:30:44;;;;;;;5.13;2.33;;;;;;;13.58;71.41;101897.72;4996000;28;20119;-77
2022/08/28 04:33:09;;;;;;;7.93;2.40;;;;;;;13.55;71.94;101895.16;4999240;28;20029;-77
2022/08/28 04:35:35;;;;;;;6.03;2.65;;;;;;;13.53;71.96;101894.31;4998479;28;20520;-77
2022/08/28 04:38:00;;;;;;;7.43;2.67;;;;;;;13.53;71.55;101899.56;4997449;28;20033;-77
2022/08/28 04:40:25;;;;;;;5.00;2.35;;;;;;;13.53;71.29;101903.03;5003603;28;20104;-77
2022/08/28 04:42:50;;;;;;;5.95;2.50;;;;;;;13.50;71.82;101903.09;5001914;28;20061;-77
2022/08/28 04:45:16;;;;;;;6.22;2.50;;;;;;;13.49;71.96;101906.59;5000849;28;20038;-77
2022/08/28 04:47:42;;;;;;;5.95;2.58;;;;;;;13.50;71.58;101903.09;5002295;28;20053;-76
2022/08/28 04:50:09;;;;;;;5.95;2.25;;;;;;;13.46;71.86;101910.16;5001082;28;20321;-77
2022/08/28 04:52:35;;;;;;;6.28;2.28;;;;;;;13.43;72.21;101906.72;5001621;28;20065;-77
2022/08/28 04:55:01;;;;;;;7.50;2.33;;;;;;;13.41;72.13;101904.16;5004033;28;20042;-77
2022/08/28 04:57:26;;;;;;;6.72;2.60;;;;;;;13.41;72.20;101908.53;5012153;28;20025;-77
2022/08/28 04:59:51;;;;;;;7.85;2.70;;;;;;;13.39;72.02;101902.44;5010428;28;21996;-77
2022/08/28 05:02:16;;;;;;;9.13;2.53;;;;;;;13.38;72.28;101904.19;5008544;28;20042;-77
2022/08/28 05:04:42;;;;;;;6.43;2.50;;;;;;;13.38;72.40;101908.56;5008155;28;20088;-77
2022/08/28 05:07:07;;;;;;;5.15;2.22;;;;;;;13.39;72.32;101915.50;5005019;28;20396;-77
2022/08/28 05:09:33;;;;;;;6.55;2.50;;;;;;;13.35;72.27;101918.19;5009561;28;20942;-77
2022/08/28 05:12:03;;;;;;;10.18;2.80;;;;;;;13.33;72.24;101916.47;5006661;28;20021;-76
2022/08/28 05:14:29;;;;;;;6.85;2.67;;;;;;;13.31;72.67;101918.28;5011500;28;20115;-77
2022/08/28 05:16:56;;;;;;;7.45;2.50;;;;;;;13.29;72.76;101920.91;5007000;28;20038;-76
2022/08/28 05:19:22;;;;;;;6.95;2.65;;;;;;;13.30;73.33;101921.78;5002571;28;20040;-76
2022/08/28 05:21:48;;;;;;;5.00;2.33;;;;;;;13.31;73.22;101926.13;5004090;28;20029;-76
2022/08/28 05:24:13;;;;;;;6.80;2.30;;;;;;;13.33;73.19;101926.94;5002638;28;20037;-77
2022/08/28 05:26:39;;;;;;;7.85;2.65;;;;;;;13.32;73.41;101933.06;5005341;28;20064;-77
2022/08/28 05:29:05;;;;;;;5.43;2.40;;;;;;;13.33;73.68;101930.41;5003179;28;20030;-77
2022/08/28 05:31:32;;;;;;;5.95;2.42;;;;;;;13.35;73.31;101940.81;5001621;28;20132;-77
2022/08/28 05:33:59;;;;;;;6.22;2.22;;;;;;;13.36;73.38;101934.72;5004990;28;20030;-77
2022/08/28 05:36:25;;;;;;;6.90;2.63;;;;;;;13.36;73.81;101938.19;5006040;28;20515;-77
2022/08/28 05:38:55;;;;;;;8.27;2.80;;;;;;;13.39;73.58;101942.50;5005334;28;20038;-77
2022/08/28 05:41:22;;;;;;;6.22;2.40;;;;;;;13.41;73.51;101940.75;5007266;28;20037;-76
2022/08/28 05:43:48;;;;;;;5.00;2.40;;;;;;;13.42;73.56;101944.22;5009667;28;20034;-76
2022/08/28 05:46:15;;;;;;;7.13;2.35;;;;;;;13.43;73.63;101940.72;5002359;28;20070;-77
2022/08/28 05:48:41;;;;;;;4.70;2.28;;;;;;;13.44;73.83;101937.19;5003744;28;20030;-77
2022/08/28 05:51:15;;;;;;;5.78;2.20;;;;;;;13.46;73.69;101949.38;5002406;28;20116;-77
2022/08/28 05:53:43;;;;;;;6.65;2.60;;;;;;;13.47;73.72;101945.88;5002600;28;20106;-77
2022/08/28 05:56:10;;;;;;;6.88;2.40;;;;;;;13.47;73.89;101945.00;5006881;28;20100;-77
2022/08/28 05:58:38;;;;;;;10.43;2.78;;;;;;;13.48;73.60;101947.59;5007279;28;20052;-77
2022/08/28 06:01:06;;;;;;;7.22;2.28;;;;;;;13.49;73.93;101951.91;4984157;28;20020;-77
2022/08/28 06:03:32;;;;;;;7.93;2.70;;;;;;;13.50;73.61;101948.41;5000558;28;20030;-77
2022/08/28 06:05:59;;;;;;;5.35;2.10;;;;;;;13.49;73.96;101948.44;5002937;28;20049;-77
2022/08/28 06:08:25;;;;;;;6.28;2.60;;;;;;;13.52;74.08;101951.00;4988175;28;20053;-77
2022/08/28 06:10:50;;;;;;;5.03;2.45;;;;;;;13.54;74.15;101961.41;5006339;28;20026;-77
2022/08/28 06:13:16;;;;;;;5.93;2.58;;;;;;;13.59;74.40;101964.81;5009791;28;20036;-77
2022/08/28 06:15:42;;;;;;;7.32;2.63;;;;;;;13.64;74.32;101962.97;5009009;28;20436;-77
2022/08/28 06:18:07;;;;;;;8.82;2.95;;;;;;;13.66;74.30;101972.47;5010102;28;20109;-76
2022/08/28 06:20:40;;;;;;;5.65;2.55;;;;;;;13.69;74.01;101968.94;5001955;28;20100;-76
2022/08/28 06:23:06;;;;;;;5.93;2.83;;;;;;;13.70;74.12;101956.75;4999769;28;20061;-77
2022/08/28 06:25:36;;;;;;;7.53;2.58;;;;;;;13.72;74.20;101966.25;4985042;28;20462;-77
2022/08/28 06:28:02;;;;;;;5.10;2.57;;;;;;;13.76;74.38;101967.94;5012788;28;20041;-77
2022/08/28 06:30:27;;;;;;;4.40;2.60;;;;;;;13.83;74.85;101965.19;5008677;28;20394;-77
2022/08/28 06:32:53;;;;;;;6.57;2.63;;;;;;;13.90;74.57;101967.66;5003617;28;20164;-77
2022/08/28 06:35:18;;;;;;;5.63;2.63;;;;;;;14.00;74.84;101964.81;5000254;28;20046;-77
2022/08/28 06:37:44;;;;;;;6.57;2.63;;;;;;;14.08;74.87;101966.38;5001445;28;20249;-77
2022/08/28 06:40:09;;;;;;;8.48;3.28;;;;;;;14.19;74.85;101970.47;4997624;28;20034;-77
2022/08/28 06:42:34;;;;;;;6.97;2.65;;;;;;;14.27;75.01;101969.41;5000430;28;20109;-77
2022/08/28 06:45:00;;;;;;;7.85;2.50;;;;;;;14.37;74.38;101969.22;5000863;28;20211;-77
2022/08/28 06:47:25;;;;;;;9.18;2.58;;;;;;;14.47;73.91;101969.84;5005027;28;20040;-77
2022/08/28 06:49:51;;;;;;;6.57;2.33;;;;;;;14.55;73.51;101976.63;5002981;28;20377;-78
2022/08/28 06:52:16;;;;;;;5.18;2.25;;;;;;;14.67;73.63;101985.06;5003437;28;20113;-78
2022/08/28 06:54:41;;;;;;;5.55;2.38;;;;;;;14.75;72.59;101984.91;4986907;28;20062;-80
2022/08/28 06:57:06;;;;;;;6.85;2.55;;;;;;;14.81;72.12;101976.91;5006918;28;20112;-77
2022/08/28 06:59:32;;;;;;;10.07;4.00;;;;;;;14.92;71.65;101977.50;5007125;28;20077;-77
2022/08/28 07:01:57;;;;;;;10.02;3.85;;;;;;;15.00;72.56;101982.53;5009439;28;20113;-77
2022/08/28 07:04:22;;;;;;;8.38;3.15;;;;;;;15.08;71.80;101975.34;5008956;28;21137;-79
2022/08/28 07:06:51;;;;;;;8.40;3.00;;;;;;;15.17;71.79;101982.09;5010180;28;20119;-77
2022/08/28 07:09:16;;;;;;;7.47;2.65;;;;;;;15.23;71.92;101981.91;5014227;28;20061;-77
2022/08/28 07:11:45;;;;;;;7.28;2.65;;;;;;;15.31;71.36;101985.22;5007346;28;20041;-77
2022/08/28 07:14:11;;;;;;;6.85;2.45;;;;;;;15.39;71.03;101981.50;5007079;28;20029;-77
2022/08/28 07:16:37;;;;;;;9.15;3.13;;;;;;;15.46;70.25;101977.81;4998507;28;20080;-84
2022/08/28 07:19:04;;;;;;;11.60;2.85;;;;;;;15.53;70.04;101986.38;5004144;28;20036;-77
2022/08/28 07:21:33;;;;;;;6.57;2.40;;;;;;;15.59;70.46;101983.56;4999369;28;20025;-77
2022/08/28 07:23:58;;;;;;;6.95;2.50;;;;;;;15.66;70.53;101984.25;5001295;28;20470;-77
2022/08/28 07:26:25;;;;;;;5.97;2.47;;;;;;;15.73;70.81;101981.41;5000680;28;20044;-77
2022/08/28 07:28:52;;;;;;;6.22;2.10;;;;;;;15.82;70.04;101975.03;5005714;28;20026;-77
2022/08/28 07:31:24;;;;;;;7.95;2.42;;;;;;;15.87;68.63;101986.28;5000904;28;20029;-77
2022/08/28 07:33:51;;;;;;;5.60;2.20;;;;;;;15.92;67.87;101981.75;5003383;28;20061;-77
2022/08/28 07:36:19;;;;;;;6.38;2.63;;;;;;;15.99;67.58;101986.81;5000654;28;20030;-77
2022/08/28 07:38:45;;;;;;;6.05;1.98;;;;;;;16.03;67.47;101986.66;5001164;28;20428;-77
2022/08/28 07:41:25;;;;;;;8.88;2.00;;;;;;;16.09;67.86;101988.25;5003187;28;20113;-77
2022/08/28 07:46:36;;;;;;;6.28;1.70;;;;;;;16.22;66.82;101981.72;4999700;28;20053;-78
2022/08/28 07:49:02;;;;;;;7.55;2.10;;;;;;;16.28;66.70;101990.31;5003406;28;20042;-78
2022/08/28 07:51:27;;;;;;;4.07;1.70;;;;;;;16.33;66.29;101994.50;4999376;28;20022;-78
2022/08/28 07:53:56;;;;;;;6.47;2.53;;;;;;;16.39;66.38;101993.47;5002804;28;20730;-79
2022/08/28 07:56:28;;;;;;;6.60;2.17;;;;;;;16.42;64.98;101998.59;4996256;28;20370;-85
2022/08/28 07:58:57;;;;;;;8.45;2.20;;;;;;;16.47;65.08;102001.94;4994869;28;20394;-78
2022/08/28 08:01:22;;;;;;;10.60;3.30;;;;;;;16.60;66.63;102009.44;5000748;28;20041;-78
2022/08/28 08:03:48;;;;;;;12.10;3.45;;;;;;;16.75;68.19;102003.66;5002843;28;20033;-78
2022/08/28 08:06:14;;;;;;;5.85;3.00;;;;;;;16.89;65.68;102010.25;5010924;28;20040;-78
2022/08/28 08:08:40;;;;;;;10.43;3.97;;;;;;;16.97;65.95;102003.84;5013794;28;20107;-78
2022/08/28 08:11:09;;;;;;;7.00;3.20;;;;;;;17.03;66.38;102007.16;5008009;28;20029;-78
2022/08/28 08:13:37;;;;;;;8.18;3.15;;;;;;;17.05;64.85;102014.09;5009384;28;20034;-78
2022/08/28 08:16:09;;;;;;;7.53;3.15;;;;;;;17.09;65.27;102018.31;5007622;28;20552;-78
2022/08/28 08:18:36;;;;;;;7.05;3.30;;;;;;;17.16;65.16;102011.13;5013820;28;20033;-78
2022/08/28 08:21:04;;;;;;;7.55;3.45;;;;;;;17.22;64.62;102017.94;5010465;28;20018;-78
2022/08/28 08:23:29;;;;;;;8.25;3.17;;;;;;;17.22;63.28;102017.94;5012724;28;20508;-78
2022/08/28 08:25:56;;;;;;;8.48;3.42;;;;;;;17.25;63.34;102020.47;5019609;28;20026;-78
2022/08/28 08:28:22;;;;;;;7.68;3.17;;;;;;;17.29;64.28;102020.28;5009807;28;20106;-78
2022/08/28 08:30:48;;;;;;;9.13;3.20;;;;;;;17.39;64.85;102015.56;5014077;28;20113;-78
2022/08/28 08:33:13;;;;;;;6.80;3.03;;;;;;;17.50;62.78;102014.31;5008690;28;20101;-78
2022/08/28 08:35:39;;;;;;;4.97;1.85;;;;;;;17.58;60.57;102014.91;5005598;28;20026;-78
2022/08/28 08:38:05;;;;;;;5.03;1.60;;;;;;;17.66;61.34;102014.63;5007381;28;20033;-78
2022/08/28 08:40:31;;;;;;;7.90;1.70;;;;;;;17.72;60.73;102017.88;5011058;28;20034;-78
2022/08/28 08:42:57;;;;;;;5.03;2.03;;;;;;;17.78;61.19;102011.53;5006419;28;20055;-78
2022/08/28 08:45:25;;;;;;;4.43;1.75;;;;;;;17.85;60.53;102017.41;5017228;28;20030;-78
2022/08/28 08:47:52;;;;;;;6.80;1.65;;;;;;;17.85;60.15;102017.41;5011170;28;20038;-78
2022/08/28 08:50:21;;;;;;;6.32;1.67;;;;;;;17.81;58.53;102023.69;5012082;28;20389;-78
2022/08/28 08:53:11;;;;;;;4.95;1.90;;;;;;;17.81;61.29;102018.44;5013761;28;20029;-78
2022/08/28 08:55:53;;;;;;;4.53;1.88;;;;;;;17.84;60.48;102015.69;5010364;28;20045;-78
2022/08/28 08:58:24;;;;;;;;;;;;;;;17.87;61.41;102015.56;5015372;28;20030;-78
2022/08/28 09:01:00;;;;;;;4.82;1.63;;;;;;;17.88;58.85;102015.50;5011528;28;19941;-78
2022/08/28 09:03:51;;;;;;;4.93;1.85;;;;;;;17.93;60.78;102007.47;5019409;28;20068;-78
2022/08/28 09:06:31;;;;;;;4.68;1.40;;;;;;;17.94;58.67;102011.78;5004409;28;20038;-78
2022/08/28 09:09:00;;;;;;;4.55;1.70;;;;;;;17.95;58.21;102010.88;5003961;28;20042;-78
2022/08/28 09:11:47;;;;;;;4.30;1.20;;;;;;;17.99;58.01;102015.13;5007083;28;20030;-78
2022/08/28 09:14:47;;;;;;;5.38;1.35;;;;;;;18.07;59.77;102016.63;5010109;28;20057;-78
2022/08/28 09:17:16;;;;;;;5.05;1.30;;;;;;;18.08;57.94;102015.72;4969215;28;20049;-78
2022/08/28 09:19:41;;;;;;;5.38;1.42;;;;;;;18.07;57.95;102024.53;5007810;28;20022;-78
2022/08/28 09:22:07;;;;;;;4.95;1.90;;;;;;;18.05;57.71;102025.44;5009931;28;20026;-78
2022/08/28 09:24:35;;;;;;;5.82;2.10;;;;;;;18.07;57.83;102017.47;5014143;28;20029;-78
2022/08/28 09:27:03;;;;;;;6.38;2.20;;;;;;;18.10;58.57;102017.34;5013199;28;20029;-78
2022/08/28 09:29:42;;;;;;;4.20;1.77;;;;;;;18.13;57.46;102011.09;5001328;28;20034;-78
2022/08/28 09:32:16;;;;;;;4.68;1.80;;;;;;;18.19;57.49;102011.72;5003927;28;20037;-78
2022/08/28 09:35:07;;;;;;;3.60;1.50;;;;;;;18.30;58.25;102013.94;5002902;28;20042;-78
2022/08/28 09:37:33;;;;;;;5.63;2.10;;;;;;;18.40;56.64;102010.94;5005318;28;20026;-78
2022/08/28 09:40:15;;;;;;;4.40;1.52;;;;;;;18.51;57.76;102014.00;5004614;28;20029;-79
2022/08/28 09:45:42;;;;;;;;;;;;;;;18.66;58.06;102010.72;5006253;28;20036;-78
2022/08/28 09:48:22;;;;;;;3.78;1.40;;;;;;;18.72;56.37;102008.78;5000721;28;19921;-78
2022/08/28 09:50:57;;;;;;;2.35;1.00;;;;;;;18.83;56.01;102005.69;5006601;28;20022;-79
2022/08/28 09:53:23;;;;;;;2.70;0.90;;;;;;;18.92;53.07;102010.56;5008868;28;20038;-79
2022/08/28 09:55:48;;;;;;;4.60;1.00;;;;;;;19.00;54.58;102012.91;5008740;28;20025;-79
2022/08/28 09:58:14;;;;;;;3.65;1.50;;;;;;;19.04;55.53;102010.09;5008712;28;20025;-79
2022/08/28 10:00:47;;;;;;;3.15;1.40;;;;;;;19.06;53.27;102007.38;5006949;28;20030;-79
2022/08/28 10:03:19;;;;;;;2.95;1.50;;;;;;;19.09;53.35;102016.00;5006684;28;20034;-79
2022/08/28 10:06:10;;;;;;;3.83;1.42;;;;;;;19.12;54.69;102009.75;5004626;28;20087;-77
2022/08/28 10:08:38;;;;;;;2.90;1.23;;;;;;;19.14;52.24;102015.81;4994596;28;20060;-77
2022/08/28 10:11:18;;;;;;;3.67;1.70;;;;;;;19.17;53.75;102007.75;5006626;28;20034;-77
2022/08/28 10:14:09;;;;;;;3.42;1.17;;;;;;;19.22;53.54;102013.69;5007596;28;20061;-77
2022/08/28 10:17:25;;;;;;;1.75;1.00;;;;;;;19.30;53.26;102015.16;5007593;28;20034;-77
2022/08/28 10:19:58;;;;;;;4.28;1.40;;;;;;;19.38;51.37;102008.63;4965917;28;20069;-77
2022/08/28 10:22:42;;;;;;;2.55;1.20;;;;;;;19.43;53.03;102013.69;5005891;28;20040;-77
2022/08/28 10:25:30;;;;;;;2.03;1.05;;;;;;;19.46;52.71;102010.91;5006289;28;20105;-77
2022/08/28 10:28:18;;;;;;;3.03;1.10;;;;;;;19.49;51.34;102017.84;5005599;28;20033;-77
2022/08/28 10:31:17;;;;;;;4.28;1.00;;;;;;;19.49;52.06;102016.03;5005158;28;20459;-77
2022/08/28 10:34:32;;;;;;;3.53;1.20;;;;;;;19.58;52.35;102008.63;5003128;28;20392;-77
2022/08/28 10:37:07;;;;;;;3.03;1.27;;;;;;;19.66;52.40;102006.50;4963900;28;20031;-77
2022/08/28 10:39:53;;;;;;;4.60;1.23;;;;;;;19.69;51.79;102012.50;4959541;28;20065;-77
2022/08/28 10:43:02;;;;;;;4.28;1.20;;;;;;;19.79;52.46;102009.44;4995191;28;20072;-78
2022/08/28 10:45:30;;;;;;;4.35;1.38;;;;;;;19.92;48.96;102002.69;4987069;28;20042;-77
2022/08/28 10:48:38;;;;;;;2.58;1.00;;;;;;;20.04;52.36;102003.06;5003001;28;20105;-77
2022/08/28 10:51:11;;;;;;;3.88;1.42;;;;;;;20.06;49.36;102006.47;5003313;28;20241;-77
2022/08/28 10:53:42;;;;;;;5.55;1.20;;;;;;;20.03;49.43;102004.81;5004263;28;20034;-79
2022/08/28 10:56:13;;;;;;;1.60;0.90;;;;;;;20.02;49.73;102001.34;5006360;28;20037;-78
2022/08/28 10:58:39;;;;;;;2.58;0.98;;;;;;;20.09;49.02;102001.91;5005829;28;20033;-79
2022/08/28 11:01:07;;;;;;;3.38;1.17;;;;;;;;;;5006462;28;20029;-79
2022/08/28 11:03:40;;;;;;;3.25;1.27;;;;;;;20.21;50.23;102008.38;5006645;28;20045;-78
2022/08/28 11:06:21;;;;;;;4.10;1.30;;;;;;;20.29;50.25;102005.38;5002298;28;20037;-79
2022/08/28 11:08:55;;;;;;;2.88;1.23;;;;;;;20.34;50.77;102007.78;5003495;28;20049;-79
2022/08/28 11:11:42;;;;;;;2.15;0.90;;;;;;;20.41;50.25;102007.41;5005393;28;20073;-79
2022/08/28 11:14:09;;;;;;;2.45;1.13;;;;;;;20.51;47.81;102009.59;5003606;28;20100;-79
2022/08/28 11:16:42;;;;;;;2.50;1.02;;;;;;;20.59;49.11;102012.72;5004465;28;20034;-79
2022/08/28 11:19:18;;;;;;;2.70;1.20;;;;;;;20.68;47.55;102014.91;5006844;28;20715;-79
2022/08/28 11:21:48;;;;;;;2.97;1.08;;;;;;;20.75;46.76;102003.13;5003275;28;20480;-79
2022/08/28 11:24:38;;;;;;;2.73;1.40;;;;;;;20.80;49.45;102002.88;5005304;28;20125;-79
2022/08/28 11:27:24;;;;;;;1.83;0.95;;;;;;;20.79;49.46;101997.69;5006518;28;20079;-79
2022/08/28 11:30:08;;;;;;;3.72;1.17;;;;;;;20.75;49.83;102005.78;5004356;28;20044;-79
2022/08/28 11:32:33;;;;;;;2.22;1.00;;;;;;;20.75;48.00;102008.41;5005060;28;20042;-79
2022/08/28 11:35:11;;;;;;;2.53;1.23;;;;;;;20.75;48.28;102013.72;5005687;28;20048;-79
2022/08/28 11:37:40;;;;;;;3.17;1.08;;;;;;;20.79;46.14;102005.63;5002775;28;20034;-79
2022/08/28 11:40:15;;;;;;;2.40;0.80;;;;;;;20.85;47.29;102007.94;5000187;28;20038;-79
2022/08/28 11:42:41;;;;;;;2.33;0.90;;;;;;;20.83;45.93;102012.47;5002006;28;20069;-79
2022/08/28 11:45:20;;;;;;;2.22;0.90;;;;;;;20.72;46.76;102010.34;5002193;28;20318;-79